createdAt,value
2023-06-22T07:46:28.316Z,24.68
2023-06-22T07:46:39.607Z,24.70
2023-06-22T07:46:51.184Z,24.75
2023-06-22T07:47:02.547Z,24.77
2023-06-22T07:47:14.171Z,24.79
2023-06-22T07:47:25.521Z,24.81
2023-06-22T07:47:37.228Z,24.82
2023-06-22T07:47:48.682Z,24.83
2023-06-22T07:48:00.336Z,24.85
2023-06-22T07:48:11.709Z,24.87
2023-06-22T07:48:23.325Z,24.88
2023-06-22T07:48:34.664Z,24.89
2023-06-22T07:48:46.249Z,24.90
2023-06-22T07:48:57.564Z,24.91
2023-06-22T07:49:09.177Z,24.93
2023-06-22T07:49:20.507Z,24.93
2023-06-22T07:49:32.261Z,24.94
2023-06-22T07:49:43.581Z,24.96
2023-06-22T07:49:55.141Z,24.96
2023-06-22T07:50:06.458Z,24.97
2023-06-22T07:50:18.062Z,24.99
2023-06-22T07:50:29.679Z,25.00
2023-06-22T07:50:41.485Z,25.01
2023-06-22T07:50:52.792Z,25.02
2023-06-22T07:51:04.351Z,25.02
2023-06-22T07:51:15.669Z,25.04
2023-06-22T07:51:27.258Z,25.04
2023-06-22T07:51:38.576Z,25.05
2023-06-22T07:51:50.148Z,25.06
2023-06-22T07:52:01.473Z,25.06
2023-06-22T07:52:13.040Z,25.08
2023-06-22T07:52:24.345Z,25.08
2023-06-22T07:52:35.926Z,25.09
2023-06-22T07:52:47.230Z,25.09
2023-06-22T07:52:58.808Z,25.10
2023-06-22T07:53:10.123Z,25.11
2023-06-22T07:53:21.677Z,25.12
2023-06-22T07:53:32.983Z,25.12
2023-06-22T07:53:44.564Z,25.12
2023-06-22T07:53:55.922Z,25.13
2023-06-22T07:54:07.573Z,25.14
2023-06-22T07:54:18.877Z,25.14
2023-06-22T07:54:30.468Z,25.15
2023-06-22T07:54:41.814Z,25.15
2023-06-22T07:54:53.412Z,25.16
2023-06-22T07:55:04.754Z,25.16
2023-06-22T07:55:16.370Z,25.17
2023-06-22T07:55:28.168Z,25.18
2023-06-22T07:55:40.016Z,25.18
2023-06-22T07:55:51.354Z,25.18
2023-06-22T07:56:02.967Z,25.19
2023-06-22T07:56:14.295Z,25.19
2023-06-22T07:56:25.890Z,25.20
2023-06-22T07:56:37.220Z,25.20
2023-06-22T07:56:48.809Z,25.21
2023-06-22T07:57:00.197Z,25.21
2023-06-22T07:57:11.739Z,25.21
2023-06-22T07:57:23.083Z,25.22
2023-06-22T07:57:34.911Z,25.23
2023-06-22T07:57:46.973Z,25.24
2023-06-22T07:57:58.300Z,25.23
2023-06-22T07:58:09.862Z,25.24
2023-06-22T07:58:21.180Z,25.24
2023-06-22T07:58:32.796Z,25.25
2023-06-22T07:58:44.132Z,25.25
2023-06-22T07:58:55.748Z,25.26
2023-06-22T07:59:07.077Z,25.26
2023-06-22T07:59:18.666Z,25.26
2023-06-22T07:59:29.994Z,25.27
2023-06-22T07:59:41.571Z,25.27
2023-06-22T07:59:52.882Z,25.27
2023-06-22T08:00:04.603Z,25.28
2023-06-22T08:00:15.926Z,25.27
2023-06-22T08:00:27.518Z,25.29
2023-06-22T08:00:38.820Z,25.29
2023-06-22T08:00:50.432Z,25.29
2023-06-22T08:01:01.760Z,25.30
2023-06-22T08:01:13.348Z,25.30
2023-06-22T08:01:24.714Z,25.30
2023-06-22T08:01:36.706Z,25.30
2023-06-22T08:01:48.413Z,25.31
2023-06-22T08:01:59.785Z,25.31
2023-06-22T08:02:11.475Z,25.32
2023-06-22T08:02:22.919Z,25.32
2023-06-22T08:02:34.555Z,25.33
2023-06-22T08:02:45.973Z,25.33
2023-06-22T08:02:57.696Z,25.33
2023-06-22T08:03:09.271Z,25.33
2023-06-22T08:03:21.033Z,25.34
2023-06-22T08:03:32.595Z,25.33
2023-06-22T08:03:44.229Z,25.34
2023-06-22T08:03:55.630Z,25.35
2023-06-22T08:04:07.261Z,25.34
2023-06-22T08:04:18.649Z,25.35
2023-06-22T08:04:30.263Z,25.35
2023-06-22T08:04:41.591Z,25.36
2023-06-22T08:04:56.373Z,25.36
2023-06-22T08:05:19.050Z,25.35
2023-06-22T08:05:21.746Z,25.34
2023-06-22T08:05:29.107Z,25.34
2023-06-22T08:05:40.635Z,25.35
2023-06-22T08:05:52.270Z,25.36
2023-06-22T08:06:03.621Z,25.37
2023-06-22T08:06:15.211Z,25.38
2023-06-22T08:06:26.520Z,25.38
2023-06-22T08:06:38.101Z,25.38
2023-06-22T08:06:49.467Z,25.39
2023-06-22T08:07:01.048Z,25.39
2023-06-22T08:07:12.360Z,25.39
2023-06-22T08:07:23.929Z,25.40
2023-06-22T08:07:35.274Z,25.40
2023-06-22T08:07:48.689Z,25.40
2023-06-22T08:07:57.918Z,25.40
2023-06-22T08:08:09.497Z,25.41
2023-06-22T08:08:20.824Z,25.41
2023-06-22T08:08:32.415Z,25.42
2023-06-22T08:08:43.717Z,25.42
2023-06-22T08:08:55.289Z,25.42
2023-06-22T08:09:06.609Z,25.43
2023-06-22T08:09:18.198Z,25.42
2023-06-22T08:09:29.510Z,25.42
2023-06-22T08:09:41.149Z,25.44
2023-06-22T08:09:52.471Z,25.43
2023-06-22T08:10:04.041Z,25.44
2023-06-22T08:10:15.365Z,25.45
2023-06-22T08:10:26.953Z,25.45
2023-06-22T08:10:38.293Z,25.45
2023-06-22T08:10:49.903Z,25.45
2023-06-22T08:11:01.229Z,25.46
2023-06-22T08:11:12.822Z,25.46
2023-06-22T08:11:24.115Z,25.46
2023-06-22T08:11:35.684Z,25.46
2023-06-22T08:11:47.001Z,25.46
2023-06-22T08:11:58.560Z,25.46
2023-06-22T08:12:09.886Z,25.48
2023-06-22T08:12:21.449Z,25.47
2023-06-22T08:12:32.755Z,25.48
2023-06-22T08:12:44.355Z,25.48
2023-06-22T08:12:55.677Z,25.49
2023-06-22T08:13:07.246Z,25.50
2023-06-22T08:13:18.565Z,25.50
2023-06-22T08:13:30.169Z,25.50
2023-06-22T08:13:41.493Z,25.49
2023-06-22T08:13:53.092Z,25.50
2023-06-22T08:14:04.398Z,25.50
2023-06-22T08:14:15.956Z,25.52
2023-06-22T08:14:27.306Z,25.51
2023-06-22T08:14:38.869Z,25.52
2023-06-22T08:14:50.263Z,25.52
2023-06-22T08:15:01.837Z,25.52
2023-06-22T08:15:13.150Z,25.52
2023-06-22T08:15:24.728Z,25.52
2023-06-22T08:15:36.096Z,25.53
2023-06-22T08:15:50.305Z,25.53
2023-06-22T08:15:59.756Z,25.54
2023-06-22T08:16:11.358Z,25.53
2023-06-22T08:16:22.661Z,25.54
2023-06-22T08:16:34.237Z,25.54
2023-06-22T08:16:45.603Z,25.54
2023-06-22T08:16:57.155Z,25.55
2023-06-22T08:17:08.479Z,25.55
2023-06-22T08:17:20.094Z,25.55
2023-06-22T08:17:31.423Z,25.55
2023-06-22T08:17:43.093Z,25.56
2023-06-22T08:17:54.491Z,25.56
2023-06-22T08:18:06.083Z,25.56
2023-06-22T08:18:17.397Z,25.57
2023-06-22T08:18:28.974Z,25.56
2023-06-22T08:18:40.303Z,25.57
2023-06-22T08:18:51.876Z,25.57
2023-06-22T08:19:03.199Z,25.57
2023-06-22T08:19:14.819Z,25.58
2023-06-22T08:19:26.126Z,25.58
2023-06-22T08:19:37.700Z,25.58
2023-06-22T08:19:49.013Z,25.58
2023-06-22T08:20:00.641Z,25.59
2023-06-22T08:20:11.948Z,25.59
2023-06-22T08:20:23.525Z,25.60
2023-06-22T08:20:34.852Z,25.60
2023-06-22T08:20:46.473Z,25.60
2023-06-22T08:20:57.797Z,25.60
2023-06-22T08:21:09.393Z,25.61
2023-06-22T08:21:20.720Z,25.61
2023-06-22T08:21:32.306Z,25.60
2023-06-22T08:21:43.643Z,25.61
2023-06-22T08:21:55.224Z,25.61
2023-06-22T08:22:06.528Z,25.61
2023-06-22T08:22:18.105Z,25.62
2023-06-22T08:22:29.440Z,25.62
2023-06-22T08:22:40.997Z,25.62
2023-06-22T08:22:52.344Z,25.63
2023-06-22T08:23:03.940Z,25.64
2023-06-22T08:23:15.273Z,25.63
2023-06-22T08:23:26.888Z,25.64
2023-06-22T08:23:38.221Z,25.64
2023-06-22T08:23:49.827Z,25.64
2023-06-22T08:24:01.139Z,25.65
2023-06-22T08:24:12.712Z,25.65
2023-06-22T08:24:24.112Z,25.65
2023-06-22T08:24:35.723Z,25.65
2023-06-22T08:24:47.049Z,25.65
2023-06-22T08:24:58.621Z,25.65
2023-06-22T08:25:10.003Z,25.66
2023-06-22T08:25:21.589Z,25.66
2023-06-22T08:25:33.031Z,25.66
2023-06-22T08:25:44.631Z,25.66
2023-06-22T08:25:55.957Z,25.66
2023-06-22T08:26:07.537Z,25.67
2023-06-22T08:26:18.878Z,25.68
2023-06-22T08:26:30.467Z,25.68
2023-06-22T08:26:41.792Z,25.68
2023-06-22T08:26:53.366Z,25.68
2023-06-22T08:27:04.705Z,25.68
2023-06-22T08:27:16.295Z,25.69
2023-06-22T08:27:27.620Z,25.68
2023-06-22T08:27:39.228Z,25.70
2023-06-22T08:27:50.539Z,25.70
2023-06-22T08:28:02.100Z,25.70
2023-06-22T08:28:13.406Z,25.70
2023-06-22T08:28:25.005Z,25.70
2023-06-22T08:28:36.344Z,25.70
2023-06-22T08:28:50.731Z,25.71
2023-06-22T08:28:58.001Z,25.70
2023-06-22T08:29:09.324Z,25.71
2023-06-22T08:29:20.892Z,25.71
2023-06-22T08:29:32.234Z,25.72
2023-06-22T08:29:43.846Z,25.71
2023-06-22T08:29:55.185Z,25.72
2023-06-22T08:30:06.804Z,25.72
2023-06-22T08:30:18.145Z,25.72
2023-06-22T08:30:29.710Z,25.73
2023-06-22T08:30:41.033Z,25.72
2023-06-22T08:30:52.596Z,25.73
2023-06-22T08:31:03.926Z,25.73
2023-06-22T08:31:15.513Z,25.73
2023-06-22T08:31:26.902Z,25.73
2023-06-22T08:31:38.587Z,25.73
2023-06-22T08:31:50.088Z,25.74
2023-06-22T08:32:01.713Z,25.74
2023-06-22T08:32:13.111Z,25.74
2023-06-22T08:32:24.701Z,25.74
2023-06-22T08:32:36.157Z,25.75
2023-06-22T08:32:47.898Z,25.75
2023-06-22T08:32:59.251Z,25.75
2023-06-22T08:33:12.063Z,25.76
2023-06-22T08:33:28.104Z,25.74
2023-06-22T08:33:34.261Z,25.74
2023-06-22T08:33:49.492Z,25.74
2023-06-22T08:33:57.181Z,25.73
2023-06-22T08:34:08.508Z,25.75
2023-06-22T08:34:20.071Z,25.76
2023-06-22T08:34:31.412Z,25.76
2023-06-22T08:34:42.993Z,25.75
2023-06-22T08:34:54.313Z,25.76
2023-06-22T08:35:05.988Z,25.77
2023-06-22T08:35:17.326Z,25.77
2023-06-22T08:35:29.250Z,25.78
2023-06-22T08:35:41.103Z,25.78
2023-06-22T08:35:52.428Z,25.78
2023-06-22T08:36:04.001Z,25.78
2023-06-22T08:36:15.317Z,25.78
2023-06-22T08:36:26.878Z,25.79
2023-06-22T08:36:38.181Z,25.79
2023-06-22T08:36:49.743Z,25.80
2023-06-22T08:37:01.091Z,25.80
2023-06-22T08:37:12.652Z,25.80
2023-06-22T08:37:23.960Z,25.80
2023-06-22T08:37:35.558Z,25.80
2023-06-22T08:37:46.918Z,25.80
2023-06-22T08:37:58.501Z,25.81
2023-06-22T08:38:09.821Z,25.81
2023-06-22T08:38:21.416Z,25.82
2023-06-22T08:38:32.760Z,25.81
2023-06-22T08:38:44.333Z,25.82
2023-06-22T08:38:55.640Z,25.82
2023-06-22T08:39:07.219Z,25.83
2023-06-22T08:39:18.571Z,25.83
2023-06-22T08:39:30.170Z,25.83
2023-06-22T08:39:41.540Z,25.83
2023-06-22T08:39:53.106Z,25.83
2023-06-22T08:40:04.439Z,25.83
2023-06-22T08:40:16.024Z,25.84
2023-06-22T08:40:27.323Z,25.84
2023-06-22T08:40:38.913Z,25.85
2023-06-22T08:40:50.245Z,25.85
2023-06-22T08:41:01.851Z,25.85
2023-06-22T08:41:13.158Z,25.85
2023-06-22T08:41:24.739Z,25.85
2023-06-22T08:41:36.076Z,25.86
2023-06-22T08:41:47.687Z,25.86
2023-06-22T08:41:58.994Z,25.86
2023-06-22T08:42:10.559Z,25.86
2023-06-22T08:42:21.871Z,25.86
2023-06-22T08:42:33.429Z,25.86
2023-06-22T08:42:44.728Z,25.86
2023-06-22T08:42:56.334Z,25.87
2023-06-22T08:43:07.667Z,25.87
2023-06-22T08:43:19.254Z,25.87
2023-06-22T08:43:30.605Z,25.88
2023-06-22T08:43:42.196Z,25.88
2023-06-22T08:43:53.550Z,25.88
2023-06-22T08:44:05.133Z,25.88
2023-06-22T08:44:16.485Z,25.88
2023-06-22T08:44:28.071Z,25.89
2023-06-22T08:44:39.381Z,25.88
2023-06-22T08:44:50.944Z,25.89
2023-06-22T08:45:02.251Z,25.90
2023-06-22T08:45:13.822Z,25.89
2023-06-22T08:45:25.653Z,25.89
2023-06-22T08:45:35.595Z,25.89
2023-06-22T08:45:47.425Z,25.90
2023-06-22T08:45:58.754Z,25.90
2023-06-22T08:46:10.367Z,25.90
2023-06-22T08:46:21.673Z,25.91
2023-06-22T08:46:33.279Z,25.91
2023-06-22T08:46:44.603Z,25.90
2023-06-22T08:46:56.379Z,25.91
2023-06-22T08:47:07.658Z,25.91
2023-06-22T08:47:19.296Z,25.92
2023-06-22T08:47:30.645Z,25.92
2023-06-22T08:47:42.334Z,25.92
2023-06-22T08:47:53.885Z,25.92
2023-06-22T08:48:05.508Z,25.92
2023-06-22T08:48:16.794Z,25.93
2023-06-22T08:48:28.385Z,25.93
2023-06-22T08:48:39.717Z,25.94
2023-06-22T08:48:51.303Z,25.94
2023-06-22T08:49:02.701Z,25.94
2023-06-22T08:49:14.275Z,25.94
2023-06-22T08:49:25.583Z,25.94
2023-06-22T08:49:37.168Z,25.94
2023-06-22T08:49:48.520Z,25.95
2023-06-22T08:50:00.089Z,25.95
2023-06-22T08:50:11.394Z,25.95
2023-06-22T08:50:23.012Z,25.96
2023-06-22T08:50:34.316Z,25.96
2023-06-22T08:50:45.878Z,25.95
2023-06-22T08:50:57.195Z,25.96
2023-06-22T08:51:08.794Z,25.96
2023-06-22T08:51:20.159Z,25.95
2023-06-22T08:51:31.767Z,25.96
2023-06-22T08:51:43.072Z,25.97
2023-06-22T08:51:54.660Z,25.97
2023-06-22T08:52:06.029Z,25.97
2023-06-22T08:52:16.744Z,25.96
2023-06-22T08:52:28.324Z,25.97
2023-06-22T08:52:39.651Z,25.98
2023-06-22T08:52:51.250Z,25.98
2023-06-22T08:53:02.554Z,25.99
2023-06-22T08:53:14.120Z,25.99
2023-06-22T08:53:25.449Z,25.98
2023-06-22T08:53:37.009Z,25.98
2023-06-22T08:53:48.350Z,25.99
2023-06-22T08:53:59.938Z,25.99
2023-06-22T08:54:11.258Z,26.00
2023-06-22T08:54:22.825Z,25.99
2023-06-22T08:54:34.155Z,26.00
2023-06-22T08:54:45.733Z,26.00
2023-06-22T08:54:57.014Z,26.00
2023-06-22T08:55:08.609Z,26.01
2023-06-22T08:55:19.911Z,26.01
2023-06-22T08:55:32.001Z,26.02
2023-06-22T08:55:43.837Z,26.02
2023-06-22T08:55:55.197Z,26.02
2023-06-22T08:56:06.776Z,26.02
2023-06-22T08:56:18.083Z,26.02
2023-06-22T08:56:29.665Z,26.02
2023-06-22T08:56:40.988Z,26.03
2023-06-22T08:56:52.592Z,26.03
2023-06-22T08:57:03.925Z,26.02
2023-06-22T08:57:15.486Z,26.03
2023-06-22T08:57:26.806Z,26.04
2023-06-22T08:57:38.374Z,26.04
2023-06-22T08:57:49.682Z,26.04
2023-06-22T08:58:01.271Z,26.05
2023-06-22T08:58:12.613Z,26.05
2023-06-22T08:58:24.176Z,26.05
2023-06-22T08:58:35.482Z,26.05
2023-06-22T08:58:47.069Z,26.06
2023-06-22T08:58:58.387Z,26.07
2023-06-22T08:59:09.954Z,26.07
2023-06-22T08:59:21.271Z,26.07
2023-06-22T08:59:32.854Z,26.07
2023-06-22T08:59:44.214Z,26.07
2023-06-22T08:59:55.767Z,26.08
2023-06-22T09:00:07.089Z,26.08
2023-06-22T09:00:18.977Z,26.08
2023-06-22T09:00:30.317Z,26.08
2023-06-22T09:00:41.900Z,26.08
2023-06-22T09:00:53.257Z,26.08
2023-06-22T09:01:04.816Z,26.09
2023-06-22T09:01:16.161Z,26.09
2023-06-22T09:01:27.757Z,26.10
2023-06-22T09:01:39.090Z,26.09
2023-06-22T09:01:50.648Z,26.10
2023-06-22T09:02:02.140Z,26.09
2023-06-22T09:02:13.739Z,26.10
2023-06-22T09:02:25.198Z,26.10
2023-06-22T09:02:36.914Z,26.11
2023-06-22T09:02:48.376Z,26.11
2023-06-22T09:03:00.428Z,26.11
2023-06-22T09:03:12.489Z,26.12
2023-06-22T09:03:24.012Z,26.12
2023-06-22T09:03:35.821Z,26.12
2023-06-22T09:03:47.287Z,26.13
2023-06-22T09:03:59.311Z,26.12
2023-06-22T09:04:11.014Z,26.11
2023-06-22T09:04:23.226Z,26.13
2023-06-22T09:04:35.204Z,26.14
2023-06-22T09:04:46.855Z,26.14
2023-06-22T09:04:58.641Z,26.14
2023-06-22T09:05:10.142Z,26.14
2023-06-22T09:05:21.887Z,26.14
2023-06-22T09:05:33.557Z,26.14
2023-06-22T09:05:45.448Z,26.14
2023-06-22T09:05:56.770Z,26.14
2023-06-22T09:06:08.443Z,26.15
2023-06-22T09:06:19.826Z,26.15
2023-06-22T09:06:31.383Z,26.15
2023-06-22T09:06:42.699Z,26.16
2023-06-22T09:06:54.295Z,26.16
2023-06-22T09:07:05.609Z,26.17
2023-06-22T09:07:17.178Z,26.16
2023-06-22T09:07:28.512Z,26.16
2023-06-22T09:07:40.068Z,26.17
2023-06-22T09:07:51.413Z,26.17
2023-06-22T09:08:02.978Z,26.17
2023-06-22T09:08:14.285Z,26.17
2023-06-22T09:08:25.911Z,26.18
2023-06-22T09:08:37.206Z,26.19
2023-06-22T09:08:48.799Z,26.19
2023-06-22T09:09:00.135Z,26.19
2023-06-22T09:09:11.706Z,26.19
2023-06-22T09:09:23.043Z,26.20
2023-06-22T09:09:34.801Z,26.20
2023-06-22T09:09:46.096Z,26.21
2023-06-22T09:09:57.699Z,26.20
2023-06-22T09:10:09.006Z,26.21
2023-06-22T09:10:20.733Z,26.22
2023-06-22T09:10:32.295Z,26.22
2023-06-22T09:10:44.149Z,26.22
2023-06-22T09:10:55.453Z,26.23
2023-06-22T09:11:07.021Z,26.23
2023-06-22T09:11:18.320Z,26.23
2023-06-22T09:11:29.900Z,26.24
2023-06-22T09:11:41.227Z,26.24
2023-06-22T09:11:52.824Z,26.25
2023-06-22T09:12:04.161Z,26.25
2023-06-22T09:12:15.740Z,26.25
2023-06-22T09:12:27.059Z,26.26
2023-06-22T09:12:38.636Z,26.26
2023-06-22T09:12:49.965Z,26.26
2023-06-22T09:13:01.558Z,26.27
2023-06-22T09:13:12.876Z,26.27
2023-06-22T09:13:24.437Z,26.27
2023-06-22T09:13:35.761Z,26.29
2023-06-22T09:13:47.345Z,26.29
2023-06-22T09:13:58.667Z,26.29
2023-06-22T09:14:10.271Z,26.29
2023-06-22T09:14:21.579Z,26.29
2023-06-22T09:14:33.209Z,26.30
2023-06-22T09:14:44.636Z,26.30
2023-06-22T09:14:56.229Z,26.31
2023-06-22T09:15:09.214Z,26.30
2023-06-22T09:15:19.392Z,26.28
2023-06-22T09:15:31.308Z,26.28
2023-06-22T09:15:40.805Z,26.29
2023-06-22T09:15:52.391Z,26.30
2023-06-22T09:16:03.725Z,26.31
2023-06-22T09:16:15.327Z,26.31
2023-06-22T09:16:26.647Z,26.32
2023-06-22T09:16:38.227Z,26.32
2023-06-22T09:16:49.575Z,26.32
2023-06-22T09:17:01.156Z,26.32
2023-06-22T09:17:12.509Z,26.33
2023-06-22T09:17:24.138Z,26.33
2023-06-22T09:17:35.593Z,26.33
2023-06-22T09:17:47.245Z,26.34
2023-06-22T09:17:58.721Z,26.33
2023-06-22T09:18:10.444Z,26.33
2023-06-22T09:18:21.799Z,26.34
2023-06-22T09:18:33.372Z,26.34
2023-06-22T09:18:44.689Z,26.35
2023-06-22T09:18:56.258Z,26.35
2023-06-22T09:19:07.608Z,26.35
2023-06-22T09:19:19.175Z,26.35
2023-06-22T09:19:30.482Z,26.36
2023-06-22T09:19:42.039Z,26.36
2023-06-22T09:19:53.362Z,26.36
2023-06-22T09:20:05.929Z,26.36
2023-06-22T09:20:16.599Z,26.36
2023-06-22T09:20:28.636Z,26.37
2023-06-22T09:20:40.412Z,26.38
2023-06-22T09:20:51.749Z,26.37
2023-06-22T09:21:03.347Z,26.38
2023-06-22T09:21:14.676Z,26.38
2023-06-22T09:21:26.332Z,26.39
2023-06-22T09:21:37.650Z,26.38
2023-06-22T09:21:49.209Z,26.38
2023-06-22T09:22:00.538Z,26.39
2023-06-22T09:22:12.124Z,26.39
2023-06-22T09:22:23.423Z,26.39
2023-06-22T09:22:35.003Z,26.40
2023-06-22T09:22:46.364Z,26.40
2023-06-22T09:22:57.957Z,26.40
2023-06-22T09:23:09.262Z,26.40
2023-06-22T09:23:20.823Z,26.41
2023-06-22T09:23:32.145Z,26.40
2023-06-22T09:23:43.733Z,26.41
2023-06-22T09:23:55.053Z,26.41
2023-06-22T09:24:06.634Z,26.40
2023-06-22T09:24:17.972Z,26.41
2023-06-22T09:24:29.556Z,26.41
2023-06-22T09:24:40.872Z,26.41
2023-06-22T09:24:52.443Z,26.41
2023-06-22T09:25:05.563Z,26.42
2023-06-22T09:25:14.098Z,26.40
2023-06-22T09:25:25.429Z,26.41
2023-06-22T09:25:37.033Z,26.41
2023-06-22T09:25:48.342Z,26.42
2023-06-22T09:25:59.899Z,26.41
2023-06-22T09:26:11.213Z,26.42
2023-06-22T09:26:22.926Z,26.43
2023-06-22T09:26:34.269Z,26.42
2023-06-22T09:26:45.852Z,26.42
2023-06-22T09:26:57.185Z,26.43
2023-06-22T09:27:08.771Z,26.43
2023-06-22T09:27:20.108Z,26.43
2023-06-22T09:27:31.696Z,26.43
2023-06-22T09:27:43.039Z,26.43
2023-06-22T09:27:54.581Z,26.44
2023-06-22T09:28:05.888Z,26.44
2023-06-22T09:28:17.445Z,26.45
2023-06-22T09:28:28.758Z,26.44
2023-06-22T09:28:40.320Z,26.45
2023-06-22T09:28:51.644Z,26.45
2023-06-22T09:29:03.209Z,26.45
2023-06-22T09:29:14.530Z,26.45
2023-06-22T09:29:26.109Z,26.45
2023-06-22T09:29:37.421Z,26.45
2023-06-22T09:29:48.979Z,26.46
2023-06-22T09:30:00.332Z,26.46
2023-06-22T09:30:11.910Z,26.47
2023-06-22T09:30:23.205Z,26.46
2023-06-22T09:30:34.769Z,26.47
2023-06-22T09:30:46.100Z,26.47
2023-06-22T09:30:57.720Z,26.48
2023-06-22T09:31:09.084Z,26.47
2023-06-22T09:31:21.883Z,26.47
2023-06-22T09:31:31.818Z,26.47
2023-06-22T09:31:43.437Z,26.49
2023-06-22T09:31:54.803Z,26.49
2023-06-22T09:32:06.533Z,26.48
2023-06-22T09:32:18.005Z,26.49
2023-06-22T09:32:29.621Z,26.49
2023-06-22T09:32:40.996Z,26.49
2023-06-22T09:32:52.625Z,26.49
2023-06-22T09:33:04.014Z,26.49
2023-06-22T09:33:15.594Z,26.49
2023-06-22T09:33:26.909Z,26.49
2023-06-22T09:33:38.523Z,26.49
2023-06-22T09:33:49.851Z,26.50
2023-06-22T09:34:01.454Z,26.50
2023-06-22T09:34:12.811Z,26.50
2023-06-22T09:34:24.365Z,26.51
2023-06-22T09:34:35.678Z,26.51
2023-06-22T09:34:47.241Z,26.50
2023-06-22T09:34:58.546Z,26.50
2023-06-22T09:35:10.829Z,26.51
2023-06-22T09:35:20.292Z,26.52
2023-06-22T09:35:31.916Z,26.51
2023-06-22T09:35:43.245Z,26.52
2023-06-22T09:35:54.797Z,26.52
2023-06-22T09:36:06.120Z,26.52
2023-06-22T09:36:17.693Z,26.52
2023-06-22T09:36:29.011Z,26.52
2023-06-22T09:36:40.716Z,26.52
2023-06-22T09:36:52.040Z,26.52
2023-06-22T09:37:03.599Z,26.53
2023-06-22T09:37:14.933Z,26.53
2023-06-22T09:37:26.522Z,26.53
2023-06-22T09:37:37.831Z,26.53
2023-06-22T09:37:49.409Z,26.53
2023-06-22T09:38:00.732Z,26.53
2023-06-22T09:38:12.327Z,26.53
2023-06-22T09:38:23.638Z,26.54
2023-06-22T09:38:35.223Z,26.54
2023-06-22T09:38:46.540Z,26.54
2023-06-22T09:38:58.169Z,26.54
2023-06-22T09:39:09.486Z,26.54
2023-06-22T09:39:21.071Z,26.54
2023-06-22T09:39:32.389Z,26.54
2023-06-22T09:39:43.971Z,26.54
2023-06-22T09:39:55.293Z,26.54
2023-06-22T09:40:06.901Z,26.55
2023-06-22T09:40:18.437Z,26.55
2023-06-22T09:40:30.326Z,26.55
2023-06-22T09:40:41.809Z,26.54
2023-06-22T09:40:53.369Z,26.55
2023-06-22T09:41:04.692Z,26.55
2023-06-22T09:41:16.375Z,26.55
2023-06-22T09:41:27.717Z,26.55
2023-06-22T09:41:39.308Z,26.55
2023-06-22T09:41:50.640Z,26.55
2023-06-22T09:42:02.197Z,26.55
2023-06-22T09:42:13.501Z,26.56
2023-06-22T09:42:25.159Z,26.56
2023-06-22T09:42:36.483Z,26.56
2023-06-22T09:42:48.054Z,26.56
2023-06-22T09:42:59.390Z,26.56
2023-06-22T09:43:10.975Z,26.56
2023-06-22T09:43:22.323Z,26.56
2023-06-22T09:43:33.902Z,26.56
2023-06-22T09:43:45.225Z,26.56
2023-06-22T09:43:57.208Z,26.57
2023-06-22T09:44:08.553Z,26.57
2023-06-22T09:44:20.115Z,26.57
2023-06-22T09:44:31.450Z,26.57
2023-06-22T09:44:43.022Z,26.57
2023-06-22T09:44:54.342Z,26.57
2023-06-22T09:45:05.950Z,26.58
2023-06-22T09:45:17.275Z,26.58
2023-06-22T09:45:28.866Z,26.57
2023-06-22T09:45:40.189Z,26.57
2023-06-22T09:45:52.418Z,26.58
2023-06-22T09:46:03.719Z,26.58
2023-06-22T09:46:15.298Z,26.58
2023-06-22T09:46:26.721Z,26.58
2023-06-22T09:46:38.272Z,26.58
2023-06-22T09:46:49.597Z,26.59
2023-06-22T09:47:01.161Z,26.59
2023-06-22T09:47:12.475Z,26.59
2023-06-22T09:47:24.157Z,26.59
2023-06-22T09:47:35.525Z,26.59
2023-06-22T09:47:47.157Z,26.59
2023-06-22T09:47:58.526Z,26.59
2023-06-22T09:48:10.111Z,26.59
2023-06-22T09:48:21.445Z,26.59
2023-06-22T09:48:33.026Z,26.59
2023-06-22T09:48:44.380Z,26.60
2023-06-22T09:48:55.974Z,26.60
2023-06-22T09:49:07.268Z,26.59
2023-06-22T09:49:23.350Z,26.60
2023-06-22T09:49:46.436Z,26.59
2023-06-22T09:49:48.438Z,26.58
2023-06-22T09:49:54.839Z,26.57
2023-06-22T09:50:06.148Z,26.59
2023-06-22T09:50:17.740Z,26.59
2023-06-22T09:50:29.534Z,26.60
2023-06-22T09:50:41.447Z,26.59
2023-06-22T09:50:52.766Z,26.60
2023-06-22T09:51:04.384Z,26.60
2023-06-22T09:51:17.952Z,26.61
2023-06-22T09:51:27.381Z,26.59
2023-06-22T09:51:39.046Z,26.60
2023-06-22T09:51:50.381Z,26.60
2023-06-22T09:52:01.968Z,26.60
2023-06-22T09:52:13.274Z,26.61
2023-06-22T09:52:28.460Z,26.62
2023-06-22T09:52:48.665Z,26.60
2023-06-22T09:52:58.027Z,26.61
2023-06-22T09:53:09.651Z,26.62
2023-06-22T09:53:20.941Z,26.62
2023-06-22T09:53:32.512Z,26.62
2023-06-22T09:53:43.819Z,26.62
2023-06-22T09:53:55.410Z,26.62
2023-06-22T09:54:06.724Z,26.63
2023-06-22T09:54:18.297Z,26.63
2023-06-22T09:54:29.666Z,26.63
2023-06-22T09:54:41.246Z,26.63
2023-06-22T09:54:52.570Z,26.63
2023-06-22T09:55:04.225Z,26.63
2023-06-22T09:55:15.521Z,26.64
2023-06-22T09:55:27.351Z,26.64
2023-06-22T09:55:39.155Z,26.65
2023-06-22T09:55:50.469Z,26.64
2023-06-22T09:56:02.027Z,26.65
2023-06-22T09:56:13.401Z,26.65
2023-06-22T09:56:26.720Z,26.64
2023-06-22T09:56:36.714Z,26.65
2023-06-22T09:56:48.256Z,26.64
2023-06-22T09:56:59.586Z,26.64
2023-06-22T09:57:11.174Z,26.64
2023-06-22T09:57:22.533Z,26.64
2023-06-22T09:57:34.141Z,26.65
2023-06-22T09:57:45.465Z,26.65
2023-06-22T09:57:57.047Z,26.65
2023-06-22T09:58:08.379Z,26.65
2023-06-22T09:58:19.999Z,26.65
2023-06-22T09:58:31.341Z,26.66
2023-06-22T09:58:42.924Z,26.67
2023-06-22T09:58:54.432Z,26.67
2023-06-22T09:59:17.657Z,26.66
2023-06-22T09:59:19.272Z,26.66
2023-06-22T09:59:28.498Z,26.67
2023-06-22T09:59:40.122Z,26.67
2023-06-22T09:59:51.482Z,26.67
2023-06-22T10:00:03.075Z,26.67
2023-06-22T10:00:14.436Z,26.67
2023-06-22T10:00:26.087Z,26.68
2023-06-22T10:00:37.405Z,26.68
2023-06-22T10:00:49.082Z,26.69
2023-06-22T10:01:00.400Z,26.68
2023-06-22T10:01:12.006Z,26.69
2023-06-22T10:01:23.337Z,26.68
2023-06-22T10:01:34.948Z,26.69
2023-06-22T10:01:46.293Z,26.69
2023-06-22T10:01:57.936Z,26.69
2023-06-22T10:02:09.526Z,26.69
2023-06-22T10:02:21.490Z,26.69
2023-06-22T10:02:33.159Z,26.69
2023-06-22T10:02:45.437Z,26.69
2023-06-22T10:03:00.888Z,26.71
2023-06-22T10:03:08.547Z,26.69
2023-06-22T10:03:20.096Z,26.70
2023-06-22T10:03:32.063Z,26.70
2023-06-22T10:03:44.026Z,26.71
2023-06-22T10:03:55.576Z,26.71
2023-06-22T10:04:07.384Z,26.71
2023-06-22T10:04:18.917Z,26.72
2023-06-22T10:04:30.838Z,26.71
2023-06-22T10:04:42.913Z,26.71
2023-06-22T10:04:54.734Z,26.71
2023-06-22T10:05:06.558Z,26.72
2023-06-22T10:05:18.343Z,26.71
2023-06-22T10:05:30.226Z,26.71
2023-06-22T10:05:42.087Z,26.73
2023-06-22T10:05:53.389Z,26.72
2023-06-22T10:06:04.967Z,26.72
2023-06-22T10:06:16.308Z,26.72
2023-06-22T10:06:27.929Z,26.72
2023-06-22T10:06:39.200Z,26.73
2023-06-22T10:06:50.781Z,26.72
2023-06-22T10:07:02.105Z,26.73
2023-06-22T10:07:13.709Z,26.73
2023-06-22T10:07:25.028Z,26.73
2023-06-22T10:07:36.610Z,26.73
2023-06-22T10:07:47.948Z,26.73
2023-06-22T10:07:59.523Z,26.73
2023-06-22T10:08:10.860Z,26.73
2023-06-22T10:08:22.422Z,26.73
2023-06-22T10:08:33.713Z,26.74
2023-06-22T10:08:45.290Z,26.74
2023-06-22T10:08:56.623Z,26.74
2023-06-22T10:09:08.204Z,26.74
2023-06-22T10:09:19.533Z,26.74
2023-06-22T10:09:31.139Z,26.74
2023-06-22T10:09:42.431Z,26.74
2023-06-22T10:09:54.022Z,26.74
2023-06-22T10:10:05.389Z,26.73
2023-06-22T10:10:17.026Z,26.74
2023-06-22T10:10:28.353Z,26.74
2023-06-22T10:10:39.932Z,26.74
2023-06-22T10:10:52.421Z,26.74
2023-06-22T10:11:03.012Z,26.73
2023-06-22T10:11:14.589Z,26.74
2023-06-22T10:11:25.918Z,26.75
2023-06-22T10:11:37.507Z,26.75
2023-06-22T10:11:48.828Z,26.74
2023-06-22T10:12:00.414Z,26.75
2023-06-22T10:12:11.746Z,26.75
2023-06-22T10:12:23.328Z,26.75
2023-06-22T10:12:34.637Z,26.75
2023-06-22T10:12:46.238Z,26.75
2023-06-22T10:12:57.559Z,26.76
2023-06-22T10:13:09.141Z,26.76
2023-06-22T10:13:20.491Z,26.76
2023-06-22T10:13:32.076Z,26.77
2023-06-22T10:13:43.403Z,26.75
2023-06-22T10:13:54.978Z,26.76
2023-06-22T10:14:06.300Z,26.76
2023-06-22T10:14:17.883Z,26.76
2023-06-22T10:14:29.194Z,26.76